Rejestracja

Wszystkie dane podawane są w czasie UTC za wyjątkiem miejsc gdzie jest jednoznacznie podane, że jest inaczej. Dane podawane w serwisie mają charakter informacyjny!!!
Informacje w sprawie dostępu do serwisu pod numerem tel. +48 261-828-138

Aktualna Pogoda
 
Pogoda w Polsce
15°C Szczecin 13°C Suwałki 14°C Warszawa 15°C Poznan
14°C Opole 14°C Kraków 17°C Rzeszów
Więcej miast w Polsce

Pogoda w Europie
14°C Berlin 14°C Paryz 12°C Bruksela 16°C Oslo
15°C Praga 16°C Zagrzeb
Więcej miast w Europie

Metary wojskowe test
METAR EPBC 301800Z 27008KT 9999 BKN040 19/07 Q1012=
METAR EPCE 302130Z 23014KT 9999 OVC007 12/11 Q1008 RMK 120 093 8/8=
METAR EPDA 302130Z 22012KT 200V270 6000 -SHRA BKN006CB 13/13 Q1008 RMK 132 097 7/7=
METAR EPDE 302130Z AUTO 00000KT 9999 11/08 Q1013 RMK 105 082=
METAR EPIR 302130Z 22006KT 9999 SCT060 SCT080 15/08 Q1012 RMK 152 062 4/3=
METAR EPKS 302130Z 23004KT CAVOK 13/07 Q1013 RMK 133 064 2/2=
METAR EPLK 302130Z 18002KT CAVOK 12/06 Q1014 RMK 117 069 0/0=
METAR EPLY 302100Z 24006KT CAVOK 14/05 Q1013 RMK 139 056 0/0=
METAR EPMB 302130Z 23012KT 9999 SCT050 BKN100 15/09 Q1009 RMK 147 070 6/3=
METAR EPMI 302130Z 25007KT 9999 BKN040 BKN100 14/08 Q1012 RMK 137 067 6/5=
METAR EPMM 302130Z 24002KT CAVOK 13/07 Q1013 RMK 132 064 1/1=
METAR EPOK 302130Z 25015KT 9999 -SHRA SCT013TCU BKN048 BKN080 13/11 Q1007 RMK 133 088 7/3=
METAR EPPR 302130Z AUTO 25008KT 14/10 Q1008 RMK 136 078=
METAR EPPW 302130Z 23008KT CAVOK 13/07 Q1013 RMK 127 067 2/2=
METAR EPSN 302100Z AUTO 25014KT ///043 12/11 Q1010 RMK 122 090=
METAR EPTM 302130Z 23004KT CAVOK 12/06 Q1014 RMK 124 064 0/0=


 
Informacje ogólne
Pogoda
Warszawa
Temperatura: 14.0°C
Wiatr: 1.0 m/s
Ciśnienie: 1013.0 hPa
Zjawiska: Brak
Temp. max: 21.3 °C
Temp. min: 12.5 °C


Dane astronomiczne
Warszawa:
Dzien: 15:37 h
Noc: 08:23 h


Using HW VSP powered by HW group.

Prawa autorskie©2007 SSH SZ RP. Wszelkie prawa zastrzeżone.